sensor_id;sensor_type;location;lat;lon;timestamp;pressure;altitude;pressure_sealevel;temperature;humidity
35910;BME280;22004;49.120;-0.200;2023-02-25T00:01:05;101049.88;;;9.61;67.22
35910;BME280;22004;49.120;-0.200;2023-02-25T00:03:31;101052.53;;;9.53;67.50
35910;BME280;22004;49.120;-0.200;2023-02-25T00:05:56;101057.56;;;9.48;67.51
35910;BME280;22004;49.120;-0.200;2023-02-25T00:08:22;101061.28;;;9.55;67.51
35910;BME280;22004;49.120;-0.200;2023-02-25T00:10:58;101056.72;;;9.39;67.62
35910;BME280;22004;49.120;-0.200;2023-02-25T00:13:25;101048.69;;;9.31;67.90
35910;BME280;22004;49.120;-0.200;2023-02-25T00:15:50;101055.69;;;9.24;67.71
35910;BME280;22004;49.120;-0.200;2023-02-25T00:18:15;101059.88;;;9.35;67.91
35910;BME280;22004;49.120;-0.200;2023-02-25T00:20:41;101054.34;;;9.28;67.81
35910;BME280;22004;49.120;-0.200;2023-02-25T00:23:06;101057.88;;;9.28;67.96
35910;BME280;22004;49.120;-0.200;2023-02-25T00:25:32;101064.56;;;9.24;67.72
35910;BME280;22004;49.120;-0.200;2023-02-25T00:27:57;101059.69;;;9.20;68.27
35910;BME280;22004;49.120;-0.200;2023-02-25T00:30:22;101063.56;;;9.25;68.36
35910;BME280;22004;49.120;-0.200;2023-02-25T00:32:48;101057.38;;;9.25;68.22
35910;BME280;22004;49.120;-0.200;2023-02-25T00:35:14;101060.19;;;9.15;68.58
35910;BME280;22004;49.120;-0.200;2023-02-25T00:37:40;101058.19;;;9.17;68.20
35910;BME280;22004;49.120;-0.200;2023-02-25T00:40:06;101055.81;;;9.14;68.25
35910;BME280;22004;49.120;-0.200;2023-02-25T00:42:39;101055.66;;;9.07;68.35
35910;BME280;22004;49.120;-0.200;2023-02-25T00:45:05;101051.47;;;9.05;68.30
35910;BME280;22004;49.120;-0.200;2023-02-25T00:47:30;101050.16;;;9.17;68.13
35910;BME280;22004;49.120;-0.200;2023-02-25T00:49:56;101052.97;;;9.07;68.45
35910;BME280;22004;49.120;-0.200;2023-02-25T00:52:21;101055.81;;;9.06;68.36
35910;BME280;22004;49.120;-0.200;2023-02-25T00:54:46;101059.81;;;9.02;68.17
35910;BME280;22004;49.120;-0.200;2023-02-25T00:57:12;101059.16;;;9.08;68.13
35910;BME280;22004;49.120;-0.200;2023-02-25T00:59:37;101053.28;;;9.04;68.30
35910;BME280;22004;49.120;-0.200;2023-02-25T01:02:03;101058.47;;;8.98;68.46
35910;BME280;22004;49.120;-0.200;2023-02-25T01:04:28;101053.75;;;9.00;68.26
35910;BME280;22004;49.120;-0.200;2023-02-25T01:06:53;101064.84;;;9.05;67.98
35910;BME280;22004;49.120;-0.200;2023-02-25T01:09:19;101068.84;;;9.01;68.35
35910;BME280;22004;49.120;-0.200;2023-02-25T01:11:45;101061.50;;;9.03;68.08
35910;BME280;22004;49.120;-0.200;2023-02-25T01:14:16;101065.00;;;8.95;68.07
35910;BME280;22004;49.120;-0.200;2023-02-25T01:16:44;101060.97;;;8.91;67.95
35910;BME280;22004;49.120;-0.200;2023-02-25T01:19:24;101067.16;;;8.92;67.97
35910;BME280;22004;49.120;-0.200;2023-02-25T01:21:55;101068.66;;;8.94;67.77
35910;BME280;22004;49.120;-0.200;2023-02-25T01:24:27;101065.13;;;8.94;67.71
35910;BME280;22004;49.120;-0.200;2023-02-25T01:26:55;101068.66;;;8.94;67.42
35910;BME280;22004;49.120;-0.200;2023-02-25T01:29:28;101064.47;;;8.92;67.69
35910;BME280;22004;49.120;-0.200;2023-02-25T01:31:57;101063.47;;;8.93;67.71
35910;BME280;22004;49.120;-0.200;2023-02-25T01:34:23;101068.16;;;8.99;67.33
35910;BME280;22004;49.120;-0.200;2023-02-25T01:36:48;101069.34;;;9.04;67.51
35910;BME280;22004;49.120;-0.200;2023-02-25T01:39:16;101066.19;;;9.01;67.49
35910;BME280;22004;49.120;-0.200;2023-02-25T01:41:42;101060.97;;;8.99;67.66
35910;BME280;22004;49.120;-0.200;2023-02-25T01:44:17;101069.84;;;9.00;67.53
35910;BME280;22004;49.120;-0.200;2023-02-25T01:46:44;101061.50;;;9.03;67.47
35910;BME280;22004;49.120;-0.200;2023-02-25T01:49:17;101055.28;;;9.02;67.13
35910;BME280;22004;49.120;-0.200;2023-02-25T01:51:45;101056.47;;;9.08;67.09
35910;BME280;22004;49.120;-0.200;2023-02-25T01:54:13;101062.63;;;8.92;67.57
35910;BME280;22004;49.120;-0.200;2023-02-25T01:56:41;101064.00;;;8.96;67.30
35910;BME280;22004;49.120;-0.200;2023-02-25T01:59:11;101063.16;;;8.96;67.15
35910;BME280;22004;49.120;-0.200;2023-02-25T02:01:38;101058.94;;;8.93;67.24
35910;BME280;22004;49.120;-0.200;2023-02-25T02:04:06;101064.84;;;9.05;67.10
35910;BME280;22004;49.120;-0.200;2023-02-25T02:06:38;101066.22;;;9.17;66.96
35910;BME280;22004;49.120;-0.200;2023-02-25T02:09:06;101064.00;;;9.04;67.33
35910;BME280;22004;49.120;-0.200;2023-02-25T02:11:32;101073.38;;;9.00;66.61
35910;BME280;22004;49.120;-0.200;2023-02-25T02:13:58;101071.19;;;9.04;67.08
35910;BME280;22004;49.120;-0.200;2023-02-25T02:36:07;101082.28;;;9.17;66.44
35910;BME280;22004;49.120;-0.200;2023-02-25T02:38:52;101077.59;;;9.19;66.33
35910;BME280;22004;49.120;-0.200;2023-02-25T02:42:01;101078.63;;;9.26;66.64
35910;BME280;22004;49.120;-0.200;2023-02-25T02:44:44;101070.94;;;9.31;66.24
35910;BME280;22004;49.120;-0.200;2023-02-25T02:47:23;101065.25;;;9.26;66.21
35910;BME280;22004;49.120;-0.200;2023-02-25T02:49:55;101067.41;;;9.23;66.26
35910;BME280;22004;49.120;-0.200;2023-02-25T02:52:26;101068.94;;;9.25;66.27
35910;BME280;22004;49.120;-0.200;2023-02-25T02:54:58;101070.94;;;9.31;66.13
35910;BME280;22004;49.120;-0.200;2023-02-25T02:57:27;101059.88;;;9.26;66.44
35910;BME280;22004;49.120;-0.200;2023-02-25T02:59:57;101065.06;;;9.28;66.39
35910;BME280;22004;49.120;-0.200;2023-02-25T03:02:30;101061.38;;;9.29;66.31
35910;BME280;22004;49.120;-0.200;2023-02-25T03:05:02;101064.91;;;9.21;66.50
35910;BME280;22004;49.120;-0.200;2023-02-25T03:07:31;101052.69;;;9.27;66.41
35910;BME280;22004;49.120;-0.200;2023-02-25T03:10:03;101055.69;;;9.24;66.51
35910;BME280;22004;49.120;-0.200;2023-02-25T03:12:30;101065.56;;;9.23;66.51
35910;BME280;22004;49.120;-0.200;2023-02-25T03:14:55;101060.69;;;9.19;66.54
35910;BME280;22004;49.120;-0.200;2023-02-25T03:17:25;101064.69;;;9.15;66.62
35910;BME280;22004;49.120;-0.200;2023-02-25T03:19:59;101057.84;;;9.12;66.47
35910;BME280;22004;49.120;-0.200;2023-02-25T03:22:35;101066.66;;;9.04;66.64
35910;BME280;22004;49.120;-0.200;2023-02-25T03:27:47;101070.25;;;9.21;66.31
35910;BME280;22004;49.120;-0.200;2023-02-25T03:33:27;101066.88;;;9.19;66.46
35910;BME280;22004;49.120;-0.200;2023-02-25T03:35:55;101074.44;;;9.16;66.39
35910;BME280;22004;49.120;-0.200;2023-02-25T03:38:25;101074.94;;;9.27;66.21
35910;BME280;22004;49.120;-0.200;2023-02-25T03:40:54;101073.94;;;9.28;66.21
35910;BME280;22004;49.120;-0.200;2023-02-25T03:43:25;101072.28;;;9.27;66.10
35910;BME280;22004;49.120;-0.200;2023-02-25T03:45:53;101079.13;;;9.22;66.48
35910;BME280;22004;49.120;-0.200;2023-02-25T03:48:21;101080.47;;;9.26;66.43
35910;BME280;22004;49.120;-0.200;2023-02-25T03:51:07;101077.13;;;9.32;65.58
35910;BME280;22004;49.120;-0.200;2023-02-25T03:53:34;101085.53;;;9.37;65.95
35910;BME280;22004;49.120;-0.200;2023-02-25T03:56:03;101081.31;;;9.35;65.92
35910;BME280;22004;49.120;-0.200;2023-02-25T03:58:34;101080.66;;;9.32;66.12
35910;BME280;22004;49.120;-0.200;2023-02-25T04:01:03;101088.16;;;9.29;65.91
35910;BME280;22004;49.120;-0.200;2023-02-25T04:03:29;101092.72;;;9.37;66.04
35910;BME280;22004;49.120;-0.200;2023-02-25T04:05:54;101082.69;;;9.47;65.91
35910;BME280;22004;49.120;-0.200;2023-02-25T04:08:20;101084.50;;;9.38;65.95
35910;BME280;22004;49.120;-0.200;2023-02-25T04:10:46;101087.53;;;9.35;66.05
35910;BME280;22004;49.120;-0.200;2023-02-25T04:13:13;101088.38;;;9.36;66.13
35910;BME280;22004;49.120;-0.200;2023-02-25T04:15:39;101090.88;;;9.37;66.19
35910;BME280;22004;49.120;-0.200;2023-02-25T04:18:05;101096.91;;;9.31;66.51
35910;BME280;22004;49.120;-0.200;2023-02-25T04:20:31;101095.91;;;9.32;66.32
35910;BME280;22004;49.120;-0.200;2023-02-25T04:22:57;101095.91;;;9.32;66.28
35910;BME280;22004;49.120;-0.200;2023-02-25T04:25:22;101101.09;;;9.25;66.52
35910;BME280;22004;49.120;-0.200;2023-02-25T04:27:48;101098.56;;;9.32;66.39
35910;BME280;22004;49.120;-0.200;2023-02-25T04:30:13;101104.41;;;9.27;66.52
35910;BME280;22004;49.120;-0.200;2023-02-25T04:32:39;101097.72;;;9.23;66.28
35910;BME280;22004;49.120;-0.200;2023-02-25T04:35:05;101107.59;;;9.23;66.55
35910;BME280;22004;49.120;-0.200;2023-02-25T04:37:34;101106.91;;;9.21;66.69
35910;BME280;22004;49.120;-0.200;2023-02-25T04:39:59;101108.28;;;9.25;66.72
35910;BME280;22004;49.120;-0.200;2023-02-25T04:42:25;101106.09;;;9.20;66.83
35910;BME280;22004;49.120;-0.200;2023-02-25T04:44:50;101111.94;;;9.24;66.72
35910;BME280;22004;49.120;-0.200;2023-02-25T04:47:16;101108.41;;;9.15;67.00
35910;BME280;22004;49.120;-0.200;2023-02-25T04:49:43;101114.97;;;9.21;66.88
35910;BME280;22004;49.120;-0.200;2023-02-25T04:52:12;101118.31;;;9.23;66.84
35910;BME280;22004;49.120;-0.200;2023-02-25T04:54:38;101115.63;;;9.23;66.98
35910;BME280;22004;49.120;-0.200;2023-02-25T04:57:05;101112.72;;;9.08;67.36
35910;BME280;22004;49.120;-0.200;2023-02-25T04:59:30;101112.41;;;9.19;66.84
35910;BME280;22004;49.120;-0.200;2023-02-25T05:01:55;101112.28;;;9.21;66.89
35910;BME280;22004;49.120;-0.200;2023-02-25T05:04:21;101119.78;;;9.17;67.05
35910;BME280;22004;49.120;-0.200;2023-02-25T05:06:46;101123.97;;;9.12;67.15
35910;BME280;22004;49.120;-0.200;2023-02-25T05:09:11;101117.72;;;8.61;67.74
35910;BME280;22004;49.120;-0.200;2023-02-25T05:11:37;101131.66;;;9.06;66.90
35910;BME280;22004;49.120;-0.200;2023-02-25T05:14:02;101124.22;;;8.92;67.98
35910;BME280;22004;49.120;-0.200;2023-02-25T05:16:28;101118.91;;;8.22;70.12
35910;BME280;22004;49.120;-0.200;2023-02-25T05:18:54;101121.84;;;7.40;70.17
35910;BME280;22004;49.120;-0.200;2023-02-25T05:21:22;101122.78;;;7.48;70.43
35910;BME280;22004;49.120;-0.200;2023-02-25T05:23:48;101117.94;;;8.49;69.17
35910;BME280;22004;49.120;-0.200;2023-02-25T05:26:17;101110.16;;;8.12;69.95
35910;BME280;22004;49.120;-0.200;2023-02-25T05:28:47;101107.13;;;8.59;68.31
35910;BME280;22004;49.120;-0.200;2023-02-25T05:31:12;101101.06;;;8.83;67.64
35910;BME280;22004;49.120;-0.200;2023-02-25T05:33:39;101103.69;;;8.67;67.85
35910;BME280;22004;49.120;-0.200;2023-02-25T05:36:06;101102.91;;;8.83;67.71
35910;BME280;22004;49.120;-0.200;2023-02-25T05:38:32;101090.28;;;9.01;66.33
35910;BME280;22004;49.120;-0.200;2023-02-25T05:40:59;101089.75;;;8.97;67.82
35910;BME280;22004;49.120;-0.200;2023-02-25T05:43:24;101088.28;;;9.03;67.29
35910;BME280;22004;49.120;-0.200;2023-02-25T05:45:53;101089.94;;;9.04;67.00
35910;BME280;22004;49.120;-0.200;2023-02-25T05:48:19;101092.75;;;8.94;67.46
35910;BME280;22004;49.120;-0.200;2023-02-25T05:50:44;101101.66;;;9.03;67.27
35910;BME280;22004;49.120;-0.200;2023-02-25T05:53:11;101096.63;;;9.00;67.41
35910;BME280;22004;49.120;-0.200;2023-02-25T05:55:40;101094.75;;;8.92;67.40
35910;BME280;22004;49.120;-0.200;2023-02-25T05:58:06;101105.50;;;9.00;67.27
35910;BME280;22004;49.120;-0.200;2023-02-25T06:00:31;101102.97;;;8.99;67.26
35910;BME280;22004;49.120;-0.200;2023-02-25T06:02:57;101105.44;;;8.32;66.68
35910;BME280;22004;49.120;-0.200;2023-02-25T06:05:22;101110.31;;;8.89;67.92
35910;BME280;22004;49.120;-0.200;2023-02-25T06:07:47;101105.16;;;9.03;66.97
35910;BME280;22004;49.120;-0.200;2023-02-25T06:10:13;101107.38;;;9.08;66.95
35910;BME280;22004;49.120;-0.200;2023-02-25T06:12:38;101099.47;;;8.98;66.50
35910;BME280;22004;49.120;-0.200;2023-02-25T06:15:03;101102.53;;;9.12;66.90
35910;BME280;22004;49.120;-0.200;2023-02-25T06:17:29;101110.75;;;9.10;67.18
35910;BME280;22004;49.120;-0.200;2023-02-25T06:19:54;101116.19;;;8.92;67.25
35910;BME280;22004;49.120;-0.200;2023-02-25T06:22:21;101115.34;;;9.00;67.30
35910;BME280;22004;49.120;-0.200;2023-02-25T06:24:46;101126.06;;;8.92;65.83
35910;BME280;22004;49.120;-0.200;2023-02-25T06:27:13;101120.69;;;8.92;67.28
35910;BME280;22004;49.120;-0.200;2023-02-25T06:29:38;101120.88;;;8.98;67.02
35910;BME280;22004;49.120;-0.200;2023-02-25T06:32:12;101116.22;;;9.00;67.10
35910;BME280;22004;49.120;-0.200;2023-02-25T06:34:38;101124.03;;;8.94;67.57
35910;BME280;22004;49.120;-0.200;2023-02-25T06:37:03;101127.06;;;8.99;66.72
35910;BME280;22004;49.120;-0.200;2023-02-25T06:39:29;101134.22;;;8.56;65.47
35910;BME280;22004;49.120;-0.200;2023-02-25T06:41:54;101124.25;;;8.66;67.45
35910;BME280;22004;49.120;-0.200;2023-02-25T06:44:20;101125.81;;;9.11;66.75
35910;BME280;22004;49.120;-0.200;2023-02-25T06:46:45;101134.41;;;8.89;66.79
35910;BME280;22004;49.120;-0.200;2023-02-25T06:49:10;101133.31;;;8.73;66.31
35910;BME280;22004;49.120;-0.200;2023-02-25T06:51:37;101140.84;;;8.26;64.72
35910;BME280;22004;49.120;-0.200;2023-02-25T06:54:03;101135.13;;;8.21;68.48
35910;BME280;22004;49.120;-0.200;2023-02-25T06:56:29;101147.19;;;8.43;67.53
35910;BME280;22004;49.120;-0.200;2023-02-25T06:58:55;101150.84;;;8.24;68.64
35910;BME280;22004;49.120;-0.200;2023-02-25T07:01:22;101145.78;;;8.57;66.14
35910;BME280;22004;49.120;-0.200;2023-02-25T07:03:48;101155.06;;;8.26;68.05
35910;BME280;22004;49.120;-0.200;2023-02-25T07:06:13;101156.50;;;8.65;66.38
35910;BME280;22004;49.120;-0.200;2023-02-25T07:08:40;101155.84;;;8.63;68.13
35910;BME280;22004;49.120;-0.200;2023-02-25T07:13:45;101150.81;;;8.94;66.92
35910;BME280;22004;49.120;-0.200;2023-02-25T07:16:12;101150.28;;;7.94;68.10
35910;BME280;22004;49.120;-0.200;2023-02-25T07:18:38;101145.63;;;8.92;66.89
35910;BME280;22004;49.120;-0.200;2023-02-25T07:21:04;101149.72;;;8.70;66.10
35910;BME280;22004;49.120;-0.200;2023-02-25T07:23:30;101152.59;;;8.77;66.68
35910;BME280;22004;49.120;-0.200;2023-02-25T07:25:56;101156.78;;;8.79;66.58
35910;BME280;22004;49.120;-0.200;2023-02-25T07:28:21;101153.72;;;8.74;65.30
35910;BME280;22004;49.120;-0.200;2023-02-25T07:30:46;101157.38;;;8.99;66.02
35910;BME280;22004;49.120;-0.200;2023-02-25T07:33:12;101163.38;;;9.27;65.70
35910;BME280;22004;49.120;-0.200;2023-02-25T07:35:37;101159.88;;;9.35;65.46
35910;BME280;22004;49.120;-0.200;2023-02-25T07:38:02;101164.06;;;9.38;65.29
35910;BME280;22004;49.120;-0.200;2023-02-25T07:40:28;101166.94;;;9.44;65.13
35910;BME280;22004;49.120;-0.200;2023-02-25T07:42:53;101170.09;;;9.40;65.13
35910;BME280;22004;49.120;-0.200;2023-02-25T07:45:19;101176.69;;;9.53;64.84
35910;BME280;22004;49.120;-0.200;2023-02-25T07:47:44;101178.31;;;9.04;66.24
35910;BME280;22004;49.120;-0.200;2023-02-25T07:50:10;101184.09;;;9.68;64.43
35910;BME280;22004;49.120;-0.200;2023-02-25T07:52:37;101192.22;;;9.42;63.90
35910;BME280;22004;49.120;-0.200;2023-02-25T07:55:03;101193.91;;;9.43;65.00
35910;BME280;22004;49.120;-0.200;2023-02-25T07:57:29;101186.66;;;10.18;62.95
35910;BME280;22004;49.120;-0.200;2023-02-25T07:59:55;101186.47;;;9.20;64.44
35910;BME280;22004;49.120;-0.200;2023-02-25T08:02:20;101202.19;;;9.74;64.25
35910;BME280;22004;49.120;-0.200;2023-02-25T08:04:46;101200.69;;;9.71;63.66
35910;BME280;22004;49.120;-0.200;2023-02-25T08:07:12;101203.94;;;9.41;64.42
35910;BME280;22004;49.120;-0.200;2023-02-25T08:09:37;101203.72;;;11.07;59.16
35910;BME280;22004;49.120;-0.200;2023-02-25T08:12:03;101197.13;;;11.18;57.97
35910;BME280;22004;49.120;-0.200;2023-02-25T08:14:28;101194.13;;;9.57;61.63
35910;BME280;22004;49.120;-0.200;2023-02-25T08:16:55;101204.03;;;8.63;65.15
35910;BME280;22004;49.120;-0.200;2023-02-25T08:19:21;101204.38;;;8.42;66.59
35910;BME280;22004;49.120;-0.200;2023-02-25T08:21:46;101205.06;;;8.26;64.80
35910;BME280;22004;49.120;-0.200;2023-02-25T08:24:12;101208.84;;;9.11;65.56
35910;BME280;22004;49.120;-0.200;2023-02-25T08:26:37;101207.66;;;9.14;65.70
35910;BME280;22004;49.120;-0.200;2023-02-25T08:29:03;101199.38;;;9.25;65.89
35910;BME280;22004;49.120;-0.200;2023-02-25T08:31:29;101206.63;;;9.41;64.84
35910;BME280;22004;49.120;-0.200;2023-02-25T08:33:54;101204.84;;;8.37;65.75
35910;BME280;22004;49.120;-0.200;2023-02-25T08:36:24;101211.28;;;8.70;64.09
35910;BME280;22004;49.120;-0.200;2023-02-25T08:38:51;101205.19;;;8.86;65.71
35910;BME280;22004;49.120;-0.200;2023-02-25T08:41:18;101205.34;;;9.19;65.27
35910;BME280;22004;49.120;-0.200;2023-02-25T08:43:48;101200.06;;;8.31;65.83
35910;BME280;22004;49.120;-0.200;2023-02-25T08:46:16;101201.59;;;8.77;64.77
35910;BME280;22004;49.120;-0.200;2023-02-25T08:48:41;101191.91;;;8.76;65.11
35910;BME280;22004;49.120;-0.200;2023-02-25T08:51:08;101194.63;;;9.11;63.60
35910;BME280;22004;49.120;-0.200;2023-02-25T08:53:38;101194.41;;;8.52;63.47
35910;BME280;22004;49.120;-0.200;2023-02-25T08:56:05;101203.28;;;8.52;65.46
35910;BME280;22004;49.120;-0.200;2023-02-25T08:58:31;101200.81;;;10.37;60.89
35910;BME280;22004;49.120;-0.200;2023-02-25T09:00:56;101200.03;;;9.77;60.19
35910;BME280;22004;49.120;-0.200;2023-02-25T09:03:22;101201.25;;;10.07;59.89
35910;BME280;22004;49.120;-0.200;2023-02-25T09:05:52;101195.59;;;10.43;59.69
35910;BME280;22004;49.120;-0.200;2023-02-25T09:08:17;101190.00;;;10.04;60.49
35910;BME280;22004;49.120;-0.200;2023-02-25T09:10:43;101198.38;;;9.84;61.13
35910;BME280;22004;49.120;-0.200;2023-02-25T09:13:08;101199.84;;;9.71;61.81
35910;BME280;22004;49.120;-0.200;2023-02-25T09:15:34;101198.22;;;9.94;60.48
35910;BME280;22004;49.120;-0.200;2023-02-25T09:17:59;101205.47;;;10.10;58.97
35910;BME280;22004;49.120;-0.200;2023-02-25T09:20:24;101205.75;;;9.82;62.23
35910;BME280;22004;49.120;-0.200;2023-02-25T09:22:50;101196.00;;;9.73;58.20
35910;BME280;22004;49.120;-0.200;2023-02-25T09:25:15;101193.88;;;10.01;60.54
35910;BME280;22004;49.120;-0.200;2023-02-25T09:27:41;101189.13;;;9.71;60.58
35910;BME280;22004;49.120;-0.200;2023-02-25T09:30:07;101189.81;;;9.89;60.79
35910;BME280;22004;49.120;-0.200;2023-02-25T09:32:33;101193.03;;;9.34;60.55
35910;BME280;22004;49.120;-0.200;2023-02-25T09:34:58;101194.00;;;9.83;59.79
35910;BME280;22004;49.120;-0.200;2023-02-25T09:37:31;101191.66;;;9.80;59.82
35910;BME280;22004;49.120;-0.200;2023-02-25T09:39:56;101188.94;;;9.64;61.02
35910;BME280;22004;49.120;-0.200;2023-02-25T09:42:25;101198.88;;;8.95;61.72
35910;BME280;22004;49.120;-0.200;2023-02-25T09:44:56;101206.84;;;9.55;63.30
35910;BME280;22004;49.120;-0.200;2023-02-25T09:47:46;101209.56;;;8.69;62.64
35910;BME280;22004;49.120;-0.200;2023-02-25T09:50:15;101205.56;;;8.65;62.20
35910;BME280;22004;49.120;-0.200;2023-02-25T09:53:16;101206.22;;;8.67;60.72
35910;BME280;22004;49.120;-0.200;2023-02-25T09:55:45;101213.72;;;8.90;62.87
35910;BME280;22004;49.120;-0.200;2023-02-25T10:03:52;101218.25;;;9.23;62.19
35910;BME280;22004;49.120;-0.200;2023-02-25T10:06:39;101221.09;;;9.22;62.22
35910;BME280;22004;49.120;-0.200;2023-02-25T10:09:32;101215.97;;;8.33;60.36
35910;BME280;22004;49.120;-0.200;2023-02-25T10:15:23;101217.75;;;8.42;60.80
35910;BME280;22004;49.120;-0.200;2023-02-25T10:23:08;101210.88;;;9.17;59.21
35910;BME280;22004;49.120;-0.200;2023-02-25T10:25:40;101208.44;;;9.32;60.17
35910;BME280;22004;49.120;-0.200;2023-02-25T10:28:13;101208.38;;;9.24;61.98
35910;BME280;22004;49.120;-0.200;2023-02-25T10:31:06;101215.09;;;9.28;61.33
35910;BME280;22004;49.120;-0.200;2023-02-25T10:33:37;101213.31;;;8.76;59.53
35910;BME280;22004;49.120;-0.200;2023-02-25T10:38:37;101208.97;;;9.10;58.78
35910;BME280;22004;49.120;-0.200;2023-02-25T10:41:06;101201.50;;;9.64;57.82
35910;BME280;22004;49.120;-0.200;2023-02-25T10:43:32;101207.53;;;10.24;60.00
35910;BME280;22004;49.120;-0.200;2023-02-25T10:48:54;101212.66;;;9.43;60.40
35910;BME280;22004;49.120;-0.200;2023-02-25T10:51:20;101209.44;;;8.97;60.22
35910;BME280;22004;49.120;-0.200;2023-02-25T10:56:18;101220.47;;;9.70;56.36
35910;BME280;22004;49.120;-0.200;2023-02-25T10:58:58;101216.41;;;10.66;57.79
35910;BME280;22004;49.120;-0.200;2023-02-25T11:01:34;101210.19;;;10.32;57.43
35910;BME280;22004;49.120;-0.200;2023-02-25T11:04:02;101213.94;;;9.73;58.68
35910;BME280;22004;49.120;-0.200;2023-02-25T11:06:33;101214.28;;;9.27;56.04
35910;BME280;22004;49.120;-0.200;2023-02-25T11:09:27;101218.06;;;9.51;57.13
35910;BME280;22004;49.120;-0.200;2023-02-25T11:11:55;101216.13;;;9.77;56.73
35910;BME280;22004;49.120;-0.200;2023-02-25T11:14:32;101212.50;;;10.68;57.26
35910;BME280;22004;49.120;-0.200;2023-02-25T11:19:44;101213.34;;;9.45;57.16
35910;BME280;22004;49.120;-0.200;2023-02-25T11:22:18;101209.31;;;9.06;57.87
35910;BME280;22004;49.120;-0.200;2023-02-25T11:24:54;101212.25;;;9.29;59.92
35910;BME280;22004;49.120;-0.200;2023-02-25T11:27:34;101216.34;;;9.07;60.15
35910;BME280;22004;49.120;-0.200;2023-02-25T11:30:06;101221.41;;;9.11;59.42
35910;BME280;22004;49.120;-0.200;2023-02-25T11:32:32;101218.75;;;9.19;58.53
35910;BME280;22004;49.120;-0.200;2023-02-25T11:35:03;101222.00;;;9.30;58.63
35910;BME280;22004;49.120;-0.200;2023-02-25T11:37:41;101213.00;;;8.79;60.46
35910;BME280;22004;49.120;-0.200;2023-02-25T11:45:32;101209.66;;;9.46;62.07
35910;BME280;22004;49.120;-0.200;2023-02-25T11:47:58;101202.19;;;9.74;61.17
35910;BME280;22004;49.120;-0.200;2023-02-25T11:50:44;101206.16;;;9.45;57.73
35910;BME280;22004;49.120;-0.200;2023-02-25T11:53:34;101204.94;;;9.40;61.28
35910;BME280;22004;49.120;-0.200;2023-02-25T11:56:24;101200.91;;;9.36;59.68
35910;BME280;22004;49.120;-0.200;2023-02-25T12:07:08;101196.06;;;9.39;58.03
35910;BME280;22004;49.120;-0.200;2023-02-25T12:18:55;101194.84;;;9.76;59.87
35910;BME280;22004;49.120;-0.200;2023-02-25T12:32:26;101181.78;;;9.81;59.00
35910;BME280;22004;49.120;-0.200;2023-02-25T12:46:17;101179.69;;;9.08;55.91
35910;BME280;22004;49.120;-0.200;2023-02-25T12:51:31;101163.88;;;9.31;57.12
35910;BME280;22004;49.120;-0.200;2023-02-25T13:02:33;101168.16;;;9.58;55.32
35910;BME280;22004;49.120;-0.200;2023-02-25T13:13:57;101164.72;;;9.40;56.65
35910;BME280;22004;49.120;-0.200;2023-02-25T13:24:44;101147.47;;;9.34;58.06
35910;BME280;22004;49.120;-0.200;2023-02-25T13:30:12;101157.78;;;9.55;55.80
35910;BME280;22004;49.120;-0.200;2023-02-25T13:35:37;101158.31;;;9.16;57.07
35910;BME280;22004;49.120;-0.200;2023-02-25T13:44:18;101163.63;;;9.08;56.10
35910;BME280;22004;49.120;-0.200;2023-02-25T13:52:26;101164.41;;;9.43;54.92
35910;BME280;22004;49.120;-0.200;2023-02-25T14:06:00;101170.72;;;9.76;59.10
35910;BME280;22004;49.120;-0.200;2023-02-25T14:19:51;101176.53;;;9.13;57.61
35910;BME280;22004;49.120;-0.200;2023-02-25T14:22:38;101181.56;;;8.82;56.68
35910;BME280;22004;49.120;-0.200;2023-02-25T14:25:40;101203.00;;;8.64;62.12
35910;BME280;22004;49.120;-0.200;2023-02-25T14:41:56;101203.00;;;8.38;62.89
35910;BME280;22004;49.120;-0.200;2023-02-25T14:44:33;101194.66;;;8.93;62.75
35910;BME280;22004;49.120;-0.200;2023-02-25T14:47:07;101196.34;;;8.68;62.35
35910;BME280;22004;49.120;-0.200;2023-02-25T14:49:53;101198.00;;;8.25;62.27
35910;BME280;22004;49.120;-0.200;2023-02-25T14:52:50;101200.34;;;8.64;62.86
35910;BME280;22004;49.120;-0.200;2023-02-25T14:55:31;101205.88;;;8.44;60.37
35910;BME280;22004;49.120;-0.200;2023-02-25T15:04:15;101206.53;;;8.64;61.59
35910;BME280;22004;49.120;-0.200;2023-02-25T15:12:16;101203.97;;;8.80;59.84
35910;BME280;22004;49.120;-0.200;2023-02-25T15:22:52;101214.94;;;9.29;61.72
35910;BME280;22004;49.120;-0.200;2023-02-25T15:32:50;101238.00;;;8.88;63.16
35910;BME280;22004;49.120;-0.200;2023-02-25T15:38:52;101242.75;;;8.50;63.92
35910;BME280;22004;49.120;-0.200;2023-02-25T15:40:58;101243.38;;;8.35;62.86
35910;BME280;22004;49.120;-0.200;2023-02-25T15:43:37;101241.78;;;8.77;63.83
35910;BME280;22004;49.120;-0.200;2023-02-25T15:48:34;101236.91;;;8.55;63.99
35910;BME280;22004;49.120;-0.200;2023-02-25T15:51:02;101244.97;;;8.81;62.04
35910;BME280;22004;49.120;-0.200;2023-02-25T15:53:35;101246.84;;;9.15;62.16
35910;BME280;22004;49.120;-0.200;2023-02-25T16:01:22;101240.00;;;8.86;62.52
35910;BME280;22004;49.120;-0.200;2023-02-25T16:03:47;101238.25;;;9.37;61.73
35910;BME280;22004;49.120;-0.200;2023-02-25T16:06:19;101246.03;;;8.88;62.43
35910;BME280;22004;49.120;-0.200;2023-02-25T16:11:36;101243.53;;;8.69;63.90
35910;BME280;22004;49.120;-0.200;2023-02-25T16:14:32;101245.56;;;8.93;61.89
35910;BME280;22004;49.120;-0.200;2023-02-25T16:17:04;101247.13;;;8.77;64.11
35910;BME280;22004;49.120;-0.200;2023-02-25T16:19:33;101249.97;;;8.58;63.73
35910;BME280;22004;49.120;-0.200;2023-02-25T16:22:06;101248.41;;;8.91;61.14
35910;BME280;22004;49.120;-0.200;2023-02-25T16:24:39;101254.31;;;8.77;61.46
35910;BME280;22004;49.120;-0.200;2023-02-25T16:27:34;101253.50;;;8.59;64.38
35910;BME280;22004;49.120;-0.200;2023-02-25T16:35:36;101259.88;;;8.84;62.94
35910;BME280;22004;49.120;-0.200;2023-02-25T16:38:21;101255.03;;;9.05;60.58
35910;BME280;22004;49.120;-0.200;2023-02-25T16:40:50;101255.41;;;8.48;63.35
35910;BME280;22004;49.120;-0.200;2023-02-25T16:43:21;101259.94;;;8.92;61.72
35910;BME280;22004;49.120;-0.200;2023-02-25T16:45:57;101258.66;;;9.30;62.72
35910;BME280;22004;49.120;-0.200;2023-02-25T16:48:50;101257.75;;;8.69;62.29